Time;durP1;ratioP1;P1;durP2;ratioP2;P2;SDS_P1;SDS_P2;PMS_P1;PMS_P2;Temp;Humidity;BMP_temperature;BMP_pressure;BME280_temperature;BME280_humidity;BME280_pressure;Samples;Min_cycle;Max_cycle;Signal;HPM_P1;HPM_P2
2022/03/14 00:00:26;;;;;;;31.40;17.20;;;;;;;0.04;55.16;101539.05;130280;1268;108756;-72
2022/03/14 00:03:45;;;;;;;32.10;17.40;;;;;;;0.01;55.17;101531.10;130240;1268;108811;-73
2022/03/14 00:06:51;;;;;;;31.50;17.50;;;;;;;0.00;55.22;101533.78;130297;1267;108841;-72
2022/03/14 00:09:57;;;;;;;31.90;18.00;;;;;;;-0.02;55.52;101536.46;130269;1268;108845;-71
2022/03/14 00:13:04;;;;;;;30.80;17.10;;;;;;;-0.06;55.78;101538.34;130317;1268;107484;-72
2022/03/14 00:16:09;;;;;;;31.10;16.60;;;;;;;-0.11;55.68;101538.70;130303;1268;108710;-73
2022/03/14 00:19:15;;;;;;;30.70;16.90;;;;;;;-0.11;55.62;101540.83;130297;1268;108652;-73
2022/03/14 00:22:21;;;;;;;29.20;16.30;;;;;;;-0.15;55.62;101541.12;130296;1268;108693;-73
2022/03/14 00:25:28;;;;;;;30.20;16.50;;;;;;;-0.18;55.77;101546.80;130271;1268;108661;-72
2022/03/14 00:28:33;;;;;;;33.40;16.60;;;;;;;-0.20;56.01;101547.92;130307;1268;109552;-74
2022/03/14 00:31:39;;;;;;;31.60;16.40;;;;;;;-0.20;55.94;101543.56;130283;1268;108858;-72
2022/03/14 00:34:45;;;;;;;35.10;17.20;;;;;;;-0.19;56.02;101544.21;130306;1268;108805;-74
2022/03/14 00:37:50;;;;;;;27.00;14.40;;;;;;;-0.15;55.95;101543.02;130283;1268;108672;-73
2022/03/14 00:40:56;;;;;;;26.60;14.60;;;;;;;-0.07;56.08;101539.59;130296;1268;107248;-73
2022/03/14 00:44:02;;;;;;;27.40;15.50;;;;;;;0.02;56.03;101533.55;130267;1268;108670;-72
2022/03/14 00:47:09;;;;;;;28.60;15.90;;;;;;;0.07;55.97;101534.02;130276;1267;108730;-72
2022/03/14 00:50:14;;;;;;;29.80;15.70;;;;;;;0.10;55.94;101532.38;130313;1268;108748;-72
2022/03/14 00:53:20;;;;;;;28.40;16.00;;;;;;;0.09;56.04;101536.77;130288;1268;108602;-72
2022/03/14 00:56:26;;;;;;;27.40;15.90;;;;;;;0.06;55.91;101536.18;130243;1268;108820;-73
2022/03/14 00:59:34;;;;;;;29.70;16.00;;;;;;;0.03;55.93;101540.34;130298;1268;107760;-73
2022/03/14 01:02:39;;;;;;;29.30;16.20;;;;;;;-0.04;56.22;101541.26;130312;1268;108723;-73
2022/03/14 01:05:44;;;;;;;29.60;16.20;;;;;;;-0.09;56.24;101544.77;130255;1268;108845;-71
2022/03/14 01:08:50;;;;;;;29.90;16.40;;;;;;;-0.14;56.60;101545.29;130166;1268;107733;-74
2022/03/14 01:11:55;;;;;;;35.30;17.50;;;;;;;-0.18;56.30;101548.23;130269;1268;108827;-72
2022/03/14 01:15:02;;;;;;;31.60;16.60;;;;;;;-0.23;56.87;101545.77;130281;1268;108693;-73
2022/03/14 01:18:07;;;;;;;29.60;16.20;;;;;;;-0.29;56.67;101548.58;130307;1268;108723;-75
2022/03/14 01:21:12;;;;;;;29.40;16.60;;;;;;;-0.32;56.70;101546.94;130305;1268;109064;-73
2022/03/14 01:24:19;;;;;;;34.00;18.10;;;;;;;-0.38;56.74;101547.31;130310;1268;108677;-73
2022/03/14 01:27:25;;;;;;;34.10;18.90;;;;;;;-0.47;57.10;101552.67;130252;1268;108607;-74
2022/03/14 01:30:31;;;;;;;35.10;18.50;;;;;;;-0.53;56.96;101554.78;130243;1268;108851;-72
2022/03/14 01:33:36;;;;;;;34.40;17.60;;;;;;;-0.58;57.14;101554.06;130321;1268;108783;-72
2022/03/14 01:36:42;;;;;;;35.80;18.00;;;;;;;-0.60;57.16;101557.63;130229;1268;108888;-72
2022/03/14 01:39:47;;;;;;;32.40;17.90;;;;;;;-0.64;57.57;101554.63;130298;1268;108749;-72
2022/03/14 01:42:53;;;;;;;33.70;17.90;;;;;;;-0.70;57.48;101554.81;130280;1268;107661;-72
2022/03/14 01:45:59;;;;;;;35.90;17.50;;;;;;;-0.73;57.40;101560.14;130292;1268;108824;-70
2022/03/14 01:49:06;;;;;;;31.00;17.80;;;;;;;-0.78;57.41;101559.79;130182;1268;108752;-72
2022/03/14 01:52:13;;;;;;;33.90;17.70;;;;;;;-0.80;57.66;101559.86;130287;1268;108743;-72
2022/03/14 01:55:19;;;;;;;35.10;18.10;;;;;;;-0.82;57.62;101560.93;130254;1268;108724;-73
2022/03/14 01:58:25;;;;;;;37.50;19.50;;;;;;;-0.84;57.56;101561.20;130294;1268;108694;-73
2022/03/14 02:01:30;;;;;;;38.10;19.30;;;;;;;-0.88;57.44;101558.86;130267;1268;108917;-74
2022/03/14 02:04:36;;;;;;;39.20;18.90;;;;;;;-0.91;57.74;101559.66;130265;1268;108964;-74
2022/03/14 02:07:41;;;;;;;34.60;17.00;;;;;;;-0.89;57.82;101555.57;130257;1268;108640;-72
2022/03/14 02:10:47;;;;;;;32.10;17.00;;;;;;;-0.82;57.77;101557.98;130254;1268;108728;-72
2022/03/14 02:13:56;;;;;;;30.00;15.80;;;;;;;-0.73;58.03;101556.50;130302;1268;108682;-73
2022/03/14 02:17:01;;;;;;;28.30;15.80;;;;;;;-0.64;58.07;101560.75;130270;1268;107657;-73
2022/03/14 02:20:08;;;;;;;28.60;16.00;;;;;;;-0.59;57.83;101561.64;130289;1268;108844;-74
2022/03/14 02:23:14;;;;;;;30.30;16.70;;;;;;;-0.57;57.95;101562.25;130310;1268;107868;-73
2022/03/14 02:26:20;;;;;;;29.90;16.60;;;;;;;-0.57;57.86;101560.35;130325;1268;109137;-73
2022/03/14 02:29:26;;;;;;;30.50;16.30;;;;;;;-0.58;57.77;101561.60;130253;1268;108815;-72
2022/03/14 02:32:31;;;;;;;30.60;17.00;;;;;;;-0.63;57.83;101566.46;130294;1268;108711;-73
2022/03/14 02:35:39;;;;;;;30.50;17.00;;;;;;;-0.68;57.89;101567.52;130265;1268;108857;-72
2022/03/14 02:38:44;;;;;;;39.10;20.20;;;;;;;-0.73;58.06;101568.38;130295;1268;108762;-73
2022/03/14 02:41:50;;;;;;;33.30;17.50;;;;;;;-0.79;58.04;101565.59;130263;1268;108804;-72
2022/03/14 02:44:55;;;;;;;34.80;18.10;;;;;;;-0.84;58.11;101567.85;130195;1268;108767;-74
2022/03/14 02:48:01;;;;;;;32.20;17.40;;;;;;;-0.87;58.20;101574.23;130277;1268;108668;-74
2022/03/14 02:51:07;;;;;;;40.60;24.20;;;;;;;-0.92;58.24;101571.58;130262;1268;108689;-73
2022/03/14 02:54:13;;;;;;;45.80;26.10;;;;;;;-0.98;58.49;101579.08;130286;1268;108640;-73
2022/03/14 02:57:19;;;;;;;41.30;23.80;;;;;;;-1.03;58.23;101584.30;130239;1268;107363;-73
2022/03/14 03:00:24;;;;;;;33.70;18.50;;;;;;;-1.07;58.30;101586.54;130290;1268;108672;-72
2022/03/14 03:03:30;;;;;;;39.00;20.90;;;;;;;-1.10;58.44;101592.56;130239;1268;108783;-71
2022/03/14 03:06:36;;;;;;;32.80;18.20;;;;;;;-1.13;58.51;101595.80;130222;1268;108814;-70
2022/03/14 03:09:41;;;;;;;31.10;17.60;;;;;;;-1.17;58.40;101602.17;130264;1268;108792;-72
2022/03/14 03:12:47;;;;;;;34.70;18.90;;;;;;;-1.20;58.59;101604.73;130273;1268;108648;-73
2022/03/14 03:15:53;;;;;;;35.60;20.00;;;;;;;-1.24;58.54;101602.72;130219;1268;108889;-71
2022/03/14 03:18:58;;;;;;;37.30;20.00;;;;;;;-1.28;58.50;101601.45;130241;1268;107623;-72
2022/03/14 03:22:06;;;;;;;38.80;20.60;;;;;;;-1.31;58.79;101605.71;130264;1268;108631;-72
2022/03/14 03:25:12;;;;;;;34.60;18.60;;;;;;;-1.35;58.54;101606.20;130236;1268;108974;-71
2022/03/14 03:28:18;;;;;;;36.20;20.20;;;;;;;-1.41;58.77;101607.55;130271;1268;108648;-72
2022/03/14 03:31:26;;;;;;;36.20;19.30;;;;;;;-1.45;58.79;101609.60;130289;1268;108857;-72
2022/03/14 03:34:32;;;;;;;34.10;18.90;;;;;;;-1.46;58.69;101614.72;130287;1268;108778;-73
2022/03/14 03:37:38;;;;;;;33.10;18.20;;;;;;;-1.51;58.87;101614.13;130284;1268;108691;-74
2022/03/14 03:40:43;;;;;;;30.80;18.10;;;;;;;-1.52;58.94;101617.31;130285;1268;108825;-73
2022/03/14 03:43:49;;;;;;;36.90;18.80;;;;;;;-1.54;59.08;101612.84;130296;1268;108901;-73
2022/03/14 03:46:54;;;;;;;45.50;23.80;;;;;;;-1.54;59.04;101613.02;130247;1268;107488;-71
2022/03/14 03:49:59;;;;;;;46.60;25.50;;;;;;;-1.57;59.11;101610.80;130138;1268;109185;-71
2022/03/14 03:53:05;;;;;;;54.20;28.90;;;;;;;-1.63;59.15;101615.48;130214;1268;108863;-70
2022/03/14 03:56:10;;;;;;;57.50;30.90;;;;;;;-1.64;59.25;101616.23;130124;1268;108733;-70
2022/03/14 03:59:16;;;;;;;37.30;19.10;;;;;;;-1.63;59.21;101620.05;130198;1268;109091;-69
2022/03/14 04:02:22;;;;;;;38.50;19.00;;;;;;;-1.60;59.18;101618.06;130196;1268;107509;-71
2022/03/14 04:05:30;;;;;;;38.50;18.00;;;;;;;-1.55;59.40;101618.27;130288;1268;108826;-78
2022/03/14 04:08:35;;;;;;;39.60;21.00;;;;;;;-1.50;59.21;101618.84;130343;1268;108637;-76
2022/03/14 04:11:41;;;;;;;39.60;20.60;;;;;;;-1.46;59.40;101621.67;130301;1269;108562;-72
2022/03/14 04:14:47;;;;;;;38.60;20.40;;;;;;;-1.43;59.19;101621.61;130316;1268;108692;-74
2022/03/14 04:17:53;;;;;;;36.30;18.40;;;;;;;-1.42;59.47;101621.94;130259;1268;108687;-73
2022/03/14 04:20:58;;;;;;;42.80;23.00;;;;;;;-1.43;59.63;101621.77;130261;1269;108844;-74
2022/03/14 04:24:06;;;;;;;50.40;25.50;;;;;;;-1.45;59.64;101618.69;130280;1270;108972;-73
2022/03/14 04:27:11;;;;;;;38.50;20.90;;;;;;;-1.48;59.66;101624.52;130273;1268;107125;-73
2022/03/14 04:30:17;;;;;;;55.40;30.10;;;;;;;-1.50;59.80;101623.02;130302;1269;108775;-71
2022/03/14 04:33:22;;;;;;;76.80;38.60;;;;;;;-1.54;59.62;101620.85;130298;1268;108967;-71
2022/03/14 04:36:28;;;;;;;109.80;58.00;;;;;;;-1.60;59.70;101619.96;130366;1267;106676;-72
2022/03/14 04:39:34;;;;;;;88.90;45.30;;;;;;;-1.65;59.54;101623.40;130365;1267;108518;-76
2022/03/14 04:42:40;;;;;;;56.60;30.30;;;;;;;-1.68;59.53;101625.23;130414;1266;108780;-74
2022/03/14 04:45:45;;;;;;;42.90;23.30;;;;;;;-1.70;59.70;101628.79;130394;1267;108652;-73
2022/03/14 04:48:51;;;;;;;35.90;19.30;;;;;;;-1.72;59.96;101624.66;130505;1267;109738;-72
2022/03/14 04:51:57;;;;;;;48.00;27.50;;;;;;;-1.74;59.83;101623.33;130324;1267;108802;-74
2022/03/14 04:55:05;;;;;;;41.50;24.00;;;;;;;-1.79;59.99;101620.64;130355;1267;107739;-76
2022/03/14 04:58:12;;;;;;;44.70;25.10;;;;;;;-1.81;60.05;101620.02;130345;1267;108750;-76
2022/03/14 05:01:23;;;;;;;37.80;20.30;;;;;;;-1.83;60.01;101620.95;130323;1267;107702;-76
2022/03/14 05:04:28;;;;;;;33.60;19.40;;;;;;;-1.86;60.03;101625.54;130375;1267;108712;-74
2022/03/14 05:07:34;;;;;;;43.00;23.50;;;;;;;-1.86;60.19;101629.73;130452;1267;108955;-73
2022/03/14 05:10:39;;;;;;;41.10;21.30;;;;;;;-1.89;60.28;101626.84;130501;1267;108833;-73
2022/03/14 05:13:45;;;;;;;35.80;19.70;;;;;;;-1.87;60.30;101627.66;130252;1267;108698;-72
2022/03/14 05:16:50;;;;;;;34.60;18.30;;;;;;;-1.83;60.05;101633.50;130362;1267;108752;-72
2022/03/14 05:19:55;;;;;;;34.80;18.00;;;;;;;-1.73;60.09;101636.02;130422;1267;108812;-73
2022/03/14 05:23:01;;;;;;;36.30;16.90;;;;;;;-1.62;60.24;101637.81;130288;1267;108743;-75
2022/03/14 05:26:06;;;;;;;35.60;19.10;;;;;;;-1.51;60.06;101636.46;130445;1267;108856;-74
2022/03/14 05:29:14;;;;;;;37.00;19.30;;;;;;;-1.43;60.28;101639.21;130385;1267;108908;-73
2022/03/14 05:32:20;;;;;;;33.70;17.90;;;;;;;-1.35;60.19;101638.31;130275;1270;108774;-72
2022/03/14 05:35:25;;;;;;;36.00;18.40;;;;;;;-1.30;60.14;101639.58;130271;1268;108793;-73
2022/03/14 05:38:31;;;;;;;40.10;20.10;;;;;;;-1.26;60.29;101647.50;130233;1268;108773;-74
2022/03/14 05:41:36;;;;;;;41.90;19.60;;;;;;;-1.22;60.53;101645.12;130233;1268;108918;-73
2022/03/14 05:44:43;;;;;;;39.50;19.50;;;;;;;-1.20;60.26;101649.05;130291;1268;108794;-73
2022/03/14 05:47:49;;;;;;;38.60;19.80;;;;;;;-1.15;60.32;101652.77;130255;1268;108655;-73
2022/03/14 05:50:54;;;;;;;40.30;20.50;;;;;;;-1.11;60.22;101659.80;130281;1268;109543;-74
2022/03/14 05:54:00;;;;;;;40.10;20.40;;;;;;;-1.06;60.22;101656.18;130323;1268;108835;-71
2022/03/14 05:57:06;;;;;;;39.20;21.00;;;;;;;-1.00;60.16;101661.06;130339;1267;108653;-74
2022/03/14 06:00:13;;;;;;;38.00;19.90;;;;;;;-0.94;60.19;101664.37;130369;1267;108687;-74
2022/03/14 06:03:22;;;;;;;35.30;18.90;;;;;;;-0.89;60.28;101666.32;130403;1267;108742;-68
2022/03/14 06:06:28;;;;;;;33.30;18.50;;;;;;;-0.84;60.38;101670.04;130287;1267;108491;-72
2022/03/14 06:09:33;;;;;;;34.60;19.10;;;;;;;-0.81;60.54;101672.90;130246;1267;109065;-70
2022/03/14 06:12:39;;;;;;;33.30;18.50;;;;;;;-0.75;61.01;101676.75;130303;1267;108917;-70
2022/03/14 06:15:47;;;;;;;34.50;19.00;;;;;;;-0.66;60.79;101681.23;130295;1267;110133;-71
2022/03/14 06:18:52;;;;;;;34.60;18.40;;;;;;;-0.62;60.70;101677.60;130220;1267;108504;-71
2022/03/14 06:21:58;;;;;;;33.40;18.60;;;;;;;-0.59;60.82;101682.73;130217;1268;106811;-71
2022/03/14 06:25:05;;;;;;;30.40;17.50;;;;;;;-0.55;60.63;101681.73;130326;1267;108844;-70
2022/03/14 06:28:11;;;;;;;32.00;17.20;;;;;;;-0.49;60.78;101682.27;130207;1267;108737;-69
2022/03/14 06:31:16;;;;;;;31.10;17.40;;;;;;;-0.43;60.71;101686.79;130173;1268;108886;-70
2022/03/14 06:34:22;;;;;;;32.70;17.80;;;;;;;-0.35;60.72;101687.09;130290;1267;108811;-72
2022/03/14 06:37:27;;;;;;;29.60;17.00;;;;;;;-0.28;60.66;101686.52;130327;1267;108882;-72
2022/03/14 06:40:33;;;;;;;30.60;17.40;;;;;;;-0.22;60.67;101687.71;130318;1268;108938;-73
2022/03/14 06:43:39;;;;;;;32.20;17.90;;;;;;;-0.18;60.90;101688.64;130325;1267;108838;-73
2022/03/14 06:46:45;;;;;;;29.30;16.90;;;;;;;-0.11;60.83;101690.70;130329;1267;108707;-71
2022/03/14 06:49:50;;;;;;;35.60;19.90;;;;;;;-0.04;60.83;101691.16;130382;1267;108765;-72
2022/03/14 06:52:55;;;;;;;34.40;19.20;;;;;;;0.06;60.69;101691.02;130322;1267;108824;-73
2022/03/14 06:56:02;;;;;;;35.10;18.30;;;;;;;0.17;60.82;101690.65;130340;1267;108051;-72
2022/03/14 06:59:08;;;;;;;30.60;16.30;;;;;;;0.32;60.71;101687.02;130294;1268;108607;-71
2022/03/14 07:02:13;;;;;;;32.70;18.10;;;;;;;0.51;60.48;101683.38;130349;1267;109010;-72
2022/03/14 07:05:21;;;;;;;31.90;17.60;;;;;;;0.67;60.44;101686.66;130342;1267;108630;-72
2022/03/14 07:08:26;;;;;;;32.70;17.20;;;;;;;0.81;60.35;101689.69;130334;1267;107727;-70
2022/03/14 07:11:32;;;;;;;29.90;17.60;;;;;;;0.93;60.34;101687.67;130270;1267;108632;-71
2022/03/14 07:14:38;;;;;;;30.40;18.30;;;;;;;1.02;60.13;101687.70;130308;1267;107361;-73
2022/03/14 07:17:44;;;;;;;31.50;17.50;;;;;;;1.10;60.07;101689.86;130307;1267;108725;-71
2022/03/14 07:20:49;;;;;;;31.10;18.40;;;;;;;1.17;60.00;101695.00;131343;1267;108722;-74
2022/03/14 07:23:55;;;;;;;31.60;18.70;;;;;;;1.25;59.97;101697.70;130445;1267;107734;-71
2022/03/14 07:27:00;;;;;;;34.90;19.00;;;;;;;1.31;59.96;101697.48;130507;1267;108674;-74
2022/03/14 07:30:08;;;;;;;33.10;18.50;;;;;;;1.35;59.97;101700.11;130339;1267;108853;-72
2022/03/14 07:33:15;;;;;;;32.50;18.80;;;;;;;1.41;60.00;101702.37;130395;1267;109753;-72
2022/03/14 07:36:21;;;;;;;31.40;18.90;;;;;;;1.46;59.80;101704.79;130591;1267;109309;-71
2022/03/14 07:39:26;;;;;;;34.10;20.00;;;;;;;1.52;59.76;101706.84;130488;1267;108737;-69
2022/03/14 07:42:32;;;;;;;31.90;18.40;;;;;;;1.55;59.87;101701.63;130291;1267;108885;-70
2022/03/14 07:45:38;;;;;;;28.90;17.40;;;;;;;1.57;59.88;101700.49;130236;1267;108863;-68
2022/03/14 07:48:43;;;;;;;32.80;18.50;;;;;;;1.62;59.85;101703.86;130324;1267;108952;-69
2022/03/14 07:51:49;;;;;;;32.10;18.50;;;;;;;1.67;59.70;101700.83;130276;1267;108662;-70
2022/03/14 07:54:55;;;;;;;33.20;18.30;;;;;;;1.72;59.80;101695.02;130172;1268;109694;-70
2022/03/14 07:58:00;;;;;;;31.40;18.40;;;;;;;1.79;59.67;101693.02;130134;1268;108842;-70
2022/03/14 08:01:06;;;;;;;35.60;19.10;;;;;;;1.85;59.63;101691.89;130161;1269;108665;-69
2022/03/14 08:04:11;;;;;;;31.40;18.30;;;;;;;1.91;59.61;101692.67;130173;1269;108681;-70
2022/03/14 08:07:20;;;;;;;34.00;20.10;;;;;;;1.99;59.47;101700.80;130143;1270;108840;-70
2022/03/14 08:10:26;;;;;;;32.30;20.30;;;;;;;2.06;59.43;101704.54;130090;1270;109060;-70
2022/03/14 08:13:32;;;;;;;31.10;18.10;;;;;;;2.13;59.25;101703.89;130245;1269;108757;-69
2022/03/14 08:16:37;;;;;;;35.80;21.00;;;;;;;2.21;59.31;101704.98;130144;1270;108775;-69
2022/03/14 08:19:42;;;;;;;35.30;19.60;;;;;;;2.29;59.29;101701.14;130277;1267;108881;-70
2022/03/14 08:22:49;;;;;;;34.80;20.10;;;;;;;2.35;59.19;101697.38;130228;1267;108548;-70
2022/03/14 08:25:55;;;;;;;41.50;20.30;;;;;;;2.45;59.24;101696.77;130213;1267;108760;-73
2022/03/14 08:29:01;;;;;;;31.60;18.50;;;;;;;2.56;59.23;101700.17;130341;1267;108681;-70
2022/03/14 08:32:08;;;;;;;36.70;20.40;;;;;;;2.66;59.02;101701.15;130169;1268;106858;-70
2022/03/14 08:35:15;;;;;;;35.10;19.90;;;;;;;2.71;58.93;101704.09;130254;1267;108884;-72
2022/03/14 08:38:21;;;;;;;42.30;23.00;;;;;;;2.80;59.02;101705.65;130336;1266;108691;-72
2022/03/14 08:41:26;;;;;;;38.20;21.00;;;;;;;2.90;58.91;101704.50;130342;1267;109842;-71
2022/03/14 08:44:31;;;;;;;32.50;19.50;;;;;;;3.01;58.83;101708.07;130323;1266;108812;-71
2022/03/14 08:47:37;;;;;;;31.40;18.70;;;;;;;3.10;58.71;101706.41;130335;1267;108998;-71
2022/03/14 08:50:43;;;;;;;30.00;18.10;;;;;;;3.19;58.57;101703.56;130419;1267;108533;-72
2022/03/14 08:53:48;;;;;;;30.90;18.30;;;;;;;3.29;58.50;101698.55;130446;1267;109029;-72
2022/03/14 08:56:54;;;;;;;34.20;20.10;;;;;;;3.39;58.31;101696.30;130293;1268;108613;-74
2022/03/14 09:00:00;;;;;;;29.90;18.10;;;;;;;3.49;58.43;101695.13;130300;1267;108754;-72
2022/03/14 09:03:05;;;;;;;29.50;18.80;;;;;;;3.59;58.13;101688.84;130606;1267;108807;-71
2022/03/14 09:06:11;;;;;;;30.40;18.80;;;;;;;3.69;58.03;101687.85;130344;1267;107775;-71
2022/03/14 09:09:18;;;;;;;33.20;20.30;;;;;;;3.79;57.97;101685.94;130273;1270;108606;-71
2022/03/14 09:12:24;;;;;;;31.10;19.50;;;;;;;3.88;57.71;101682.54;130340;1267;107500;-71
2022/03/14 09:15:30;;;;;;;32.10;18.60;;;;;;;3.95;57.60;101676.75;130297;1268;109630;-71
2022/03/14 09:18:36;;;;;;;30.20;17.90;;;;;;;4.05;57.75;101675.02;130379;1266;108396;-71
2022/03/14 09:21:41;;;;;;;29.50;17.50;;;;;;;4.15;57.41;101675.21;130279;1269;109700;-71
2022/03/14 09:24:48;;;;;;;27.70;18.00;;;;;;;4.26;57.47;101668.33;130280;1267;108846;-70
2022/03/14 09:27:54;;;;;;;41.50;21.30;;;;;;;4.35;57.23;101669.47;130264;1270;108909;-71
2022/03/14 09:30:59;;;;;;;42.20;21.50;;;;;;;4.43;57.24;101668.38;130296;1266;108886;-71
2022/03/14 09:34:08;;;;;;;28.70;18.10;;;;;;;4.53;57.19;101669.81;130228;1268;108885;-71
2022/03/14 09:37:14;;;;;;;31.60;18.10;;;;;;;4.61;57.16;101667.92;130096;1268;108918;-70
2022/03/14 09:40:22;;;;;;;34.40;18.80;;;;;;;4.75;58.59;101664.58;130426;1267;107692;-71
2022/03/14 09:43:30;;;;;;;50.30;23.30;;;;;;;4.92;57.69;101661.40;130428;1267;108940;-70
2022/03/14 09:46:38;;;;;;;31.10;18.70;;;;;;;5.02;57.06;101661.57;130165;1267;108496;-70
2022/03/14 09:49:46;;;;;;;29.20;17.90;;;;;;;5.13;56.77;101662.76;130390;1267;108541;-71
2022/03/14 09:52:54;;;;;;;31.80;17.90;;;;;;;5.22;56.46;101665.41;130467;1267;108659;-72
2022/03/14 09:55:59;;;;;;;38.30;20.20;;;;;;;5.27;56.41;101660.89;130451;1267;108938;-71
2022/03/14 09:59:07;;;;;;;41.10;21.20;;;;;;;5.36;56.30;101664.12;130350;1267;107643;-72
2022/03/14 10:02:14;;;;;;;58.80;26.30;;;;;;;5.44;56.12;101663.52;130198;1267;108711;-71
2022/03/14 10:05:19;;;;;;;45.70;22.90;;;;;;;5.53;55.99;101661.08;130299;1268;108696;-73
2022/03/14 10:08:25;;;;;;;35.60;20.10;;;;;;;5.63;55.90;101660.33;130334;1267;108745;-72
2022/03/14 10:11:31;;;;;;;28.30;17.30;;;;;;;5.71;55.65;101654.21;130254;1267;108836;-72
2022/03/14 10:14:37;;;;;;;33.00;19.70;;;;;;;5.81;55.67;101656.09;130270;1267;107742;-72
2022/03/14 10:17:42;;;;;;;26.60;16.40;;;;;;;5.91;55.54;101653.10;130225;1267;108825;-73
2022/03/14 10:20:57;;;;;;;32.90;19.80;;;;;;;6.01;55.20;101655.23;130284;1267;108866;-74
2022/03/14 10:24:05;;;;;;;25.60;16.90;;;;;;;6.11;55.35;101652.13;130281;1267;109194;-72
2022/03/14 10:27:13;;;;;;;36.10;20.50;;;;;;;6.21;55.00;101645.74;130389;1267;108722;-74
2022/03/14 10:30:29;;;;;;;38.40;21.70;;;;;;;6.31;55.16;101644.60;130368;1267;108639;-71
2022/03/14 10:33:35;;;;;;;29.50;19.20;;;;;;;6.39;54.56;101643.23;130330;1267;108764;-71
2022/03/14 10:36:45;;;;;;;37.10;20.80;;;;;;;6.43;54.78;101646.89;130385;1268;108859;-71
2022/03/14 10:39:59;;;;;;;28.40;18.40;;;;;;;6.46;54.94;101647.73;130230;1267;108908;-68
2022/03/14 10:43:09;;;;;;;33.10;20.00;;;;;;;6.55;54.33;101645.45;130202;1268;108645;-71
2022/03/14 10:46:14;;;;;;;36.10;21.90;;;;;;;6.63;54.18;101644.09;130172;1268;108682;-70
2022/03/14 10:49:29;;;;;;;29.70;19.40;;;;;;;6.70;54.47;101641.02;130205;1268;108946;-70
2022/03/14 10:52:34;;;;;;;29.00;18.40;;;;;;;6.77;54.49;101637.94;130203;1268;107681;-71
2022/03/14 10:55:43;;;;;;;29.80;19.00;;;;;;;6.85;54.57;101643.45;130256;1268;108726;-71
2022/03/14 10:58:48;;;;;;;34.70;21.70;;;;;;;6.90;54.26;101638.55;130259;1269;109032;-71
2022/03/14 11:02:06;;;;;;;29.10;19.40;;;;;;;6.96;54.16;101635.36;130292;1268;108824;-72
2022/03/14 11:05:22;;;;;;;33.40;20.00;;;;;;;6.99;53.91;101628.80;130104;1270;108864;-71
2022/03/14 11:08:38;;;;;;;29.20;18.80;;;;;;;7.06;54.14;101630.61;130289;1268;108723;-70
2022/03/14 11:11:44;;;;;;;33.90;21.00;;;;;;;7.15;53.77;101630.13;130320;1268;108727;-72
2022/03/14 11:14:57;;;;;;;29.20;18.60;;;;;;;7.23;54.00;101637.72;130132;1268;108865;-69
2022/03/14 11:18:03;;;;;;;28.30;17.80;;;;;;;7.28;53.82;101632.25;130120;1268;109183;-71
2022/03/14 11:21:09;;;;;;;32.10;19.00;;;;;;;7.33;53.41;101628.21;129986;1269;108705;-71
2022/03/14 11:24:15;;;;;;;31.40;19.90;;;;;;;7.36;53.61;101621.70;130101;1268;108879;-70
2022/03/14 11:27:25;;;;;;;31.40;19.80;;;;;;;7.38;53.52;101617.12;130256;1268;108674;-70
2022/03/14 11:30:31;;;;;;;31.30;19.80;;;;;;;7.42;53.37;101614.58;130297;1268;108634;-71
2022/03/14 11:33:37;;;;;;;36.20;22.00;;;;;;;7.45;53.02;101609.92;130027;1268;109069;-71
2022/03/14 11:36:43;;;;;;;28.50;18.20;;;;;;;7.49;52.97;101606.83;130118;1268;107527;-70
2022/03/14 11:39:49;;;;;;;41.10;22.60;;;;;;;7.54;53.25;101602.49;130182;1268;108858;-71
2022/03/14 11:42:55;;;;;;;32.20;19.90;;;;;;;7.57;52.85;101601.34;130134;1267;107215;-72
2022/03/14 11:46:03;;;;;;;32.70;20.20;;;;;;;7.63;52.60;101599.73;130242;1268;108514;-72
2022/03/14 11:49:19;;;;;;;33.80;20.60;;;;;;;7.67;52.55;101599.13;130284;1268;108551;-70
2022/03/14 11:52:34;;;;;;;37.00;22.40;;;;;;;7.75;52.50;101594.52;130120;1267;108758;-70
2022/03/14 11:55:56;;;;;;;35.10;19.30;;;;;;;7.82;52.40;101592.99;129967;1268;187788;-70
2022/03/14 11:59:01;;;;;;;46.50;24.60;;;;;;;7.92;52.71;101592.90;130318;1267;106996;-72
2022/03/14 12:02:09;;;;;;;42.90;24.20;;;;;;;7.98;52.36;101592.26;130191;1268;108812;-69
2022/03/14 12:05:15;;;;;;;41.90;24.90;;;;;;;8.05;52.09;101584.20;130106;1268;108863;-70
2022/03/14 12:09:01;;;;;;;37.50;22.90;;;;;;;8.09;51.83;101583.92;130181;1267;108610;-70
2022/03/14 12:12:31;;;;;;;40.10;22.60;;;;;;;8.12;51.91;101574.71;130256;1268;108965;-74
2022/03/14 12:15:42;;;;;;;32.80;20.40;;;;;;;8.16;51.86;101577.77;130295;1268;108896;-72
2022/03/14 12:18:48;;;;;;;30.20;19.30;;;;;;;8.24;51.79;101578.64;130423;1268;108980;-71
2022/03/14 12:21:54;;;;;;;27.10;18.70;;;;;;;8.27;51.52;101578.25;130312;1268;108722;-74
2022/03/14 12:25:01;;;;;;;26.50;18.60;;;;;;;8.31;51.33;101571.27;130321;1268;108904;-71
2022/03/14 12:28:32;;;;;;;30.80;20.60;;;;;;;8.36;50.69;101564.15;130256;1268;108882;-71
2022/03/14 12:31:37;;;;;;;29.90;20.40;;;;;;;8.41;50.87;101562.04;130281;1268;108848;-72
2022/03/14 12:34:43;;;;;;;32.80;20.80;;;;;;;8.49;51.09;101562.59;130269;1268;108892;-70
2022/03/14 12:37:52;;;;;;;27.70;18.20;;;;;;;8.54;50.87;101562.23;130286;1268;108692;-71
2022/03/14 12:40:57;;;;;;;29.80;18.70;;;;;;;8.56;50.77;101562.06;130227;1270;108782;-74
2022/03/14 12:44:16;;;;;;;26.40;18.20;;;;;;;8.61;50.74;101558.38;130051;1271;108826;-72
2022/03/14 12:47:21;;;;;;;26.50;18.60;;;;;;;8.66;50.45;101555.92;130052;1271;107442;-74
2022/03/14 12:51:01;;;;;;;28.10;19.40;;;;;;;8.70;50.42;101552.23;130249;1271;107228;-72
2022/03/14 12:54:07;;;;;;;29.20;18.30;;;;;;;8.77;49.88;101547.14;130571;1271;107344;-74
2022/03/14 12:57:14;;;;;;;27.90;18.90;;;;;;;8.80;50.08;101541.76;130157;1271;108723;-73
2022/03/14 13:00:20;;;;;;;27.50;18.00;;;;;;;8.84;49.67;101539.20;130051;1271;108047;-73
2022/03/14 13:03:28;;;;;;;30.90;17.70;;;;;;;8.87;49.74;101535.25;130001;1271;108721;-73
2022/03/14 13:06:40;;;;;;;26.10;16.30;;;;;;;8.95;49.89;101526.16;130096;1271;107495;-73
2022/03/14 13:09:53;;;;;;;24.70;17.60;;;;;;;8.99;49.43;101529.02;130051;1270;108766;-72
2022/03/14 13:12:59;;;;;;;24.10;16.90;;;;;;;9.05;49.51;101527.41;130046;1271;108565;-71
2022/03/14 13:16:09;;;;;;;29.80;19.20;;;;;;;9.12;49.12;101530.61;130157;1271;108787;-71
2022/03/14 13:19:19;;;;;;;26.00;17.80;;;;;;;9.18;49.32;101522.37;130214;1271;108123;-72
2022/03/14 13:22:24;;;;;;;26.60;18.20;;;;;;;9.21;48.90;101519.48;130071;1270;107174;-73
2022/03/14 13:25:35;;;;;;;23.00;16.40;;;;;;;9.22;49.10;101516.92;130050;1270;108853;-73
2022/03/14 13:28:41;;;;;;;22.70;16.00;;;;;;;9.22;48.81;101514.59;130025;1271;107141;-72
2022/03/14 13:31:49;;;;;;;21.80;15.10;;;;;;;9.27;48.83;101511.04;130080;1270;108832;-73
2022/03/14 13:35:09;;;;;;;22.80;16.00;;;;;;;9.27;48.45;101512.97;130035;1270;108828;-74
2022/03/14 13:38:27;;;;;;;22.00;14.70;;;;;;;9.29;48.48;101511.25;130067;1267;108536;-74
2022/03/14 13:41:32;;;;;;;21.50;14.40;;;;;;;9.30;48.32;101512.21;130330;1267;108885;-71
2022/03/14 13:44:39;;;;;;;21.90;14.50;;;;;;;9.30;48.41;101509.41;130239;1267;108737;-73
2022/03/14 13:47:53;;;;;;;23.20;14.60;;;;;;;9.33;48.11;101508.64;130217;1268;108884;-73
2022/03/14 13:50:59;;;;;;;22.10;13.90;;;;;;;9.36;47.92;101512.30;130161;1268;108783;-73
2022/03/14 13:54:09;;;;;;;23.30;14.20;;;;;;;9.38;47.68;101513.70;130257;1268;108927;-72